createdAt,value
2023-04-24T00:01:08.942Z,14.10
2023-04-24T00:06:12.674Z,14.10
2023-04-24T00:11:17.759Z,14.00
2023-04-24T00:16:21.537Z,14.00
2023-04-24T00:21:27.209Z,13.90
2023-04-24T00:26:32.018Z,13.90
2023-04-24T00:31:35.870Z,13.80
2023-04-24T00:36:39.341Z,13.60
2023-04-24T00:41:44.250Z,13.50
2023-04-24T00:46:52.811Z,13.40
2023-04-24T00:51:56.051Z,13.30
2023-04-24T00:57:01.476Z,13.20
2023-04-24T01:02:04.681Z,13.20
2023-04-24T01:07:11.547Z,13.10
2023-04-24T01:12:16.682Z,13.10
2023-04-24T01:17:22.083Z,13.00
2023-04-24T01:22:26.742Z,13.00
2023-04-24T01:27:30.058Z,13.00
2023-04-24T01:32:34.504Z,12.90
2023-04-24T01:37:39.755Z,12.90
2023-04-24T01:42:44.428Z,12.90
2023-04-24T01:47:48.529Z,12.80
2023-04-24T01:52:53.172Z,12.70
2023-04-24T01:57:58.574Z,12.70
2023-04-24T02:03:03.343Z,12.60
2023-04-24T02:08:08.241Z,12.50
2023-04-24T02:13:14.463Z,12.50
2023-04-24T02:18:17.917Z,12.40
2023-04-24T02:23:22.635Z,12.30
2023-04-24T02:28:26.480Z,12.30
2023-04-24T02:33:30.133Z,12.30
2023-04-24T02:38:35.050Z,12.30
2023-04-24T02:43:38.341Z,12.20
2023-04-24T02:48:41.853Z,12.20
2023-04-24T02:53:46.633Z,12.20
2023-04-24T02:58:50.401Z,12.10
2023-04-24T03:03:53.990Z,12.00
2023-04-24T03:08:59.192Z,12.00
2023-04-24T03:14:03.128Z,11.90
2023-04-24T03:19:06.469Z,11.90
2023-04-24T03:24:15.817Z,11.90
2023-04-24T03:29:19.736Z,11.80
2023-04-24T03:34:23.731Z,11.80
2023-04-24T03:39:28.905Z,11.70
2023-04-24T03:44:33.911Z,11.70
2023-04-24T03:49:38.354Z,11.70
2023-04-24T03:54:43.566Z,11.70
2023-04-24T03:59:48.646Z,11.60
2023-04-24T04:04:55.998Z,11.60
2023-04-24T04:10:01.146Z,11.60
2023-04-24T04:15:06.164Z,11.60
2023-04-24T04:20:12.273Z,11.60
2023-04-24T04:25:20.361Z,11.50
2023-04-24T04:30:24.961Z,11.70
2023-04-24T04:35:34.532Z,11.80
2023-04-24T04:40:39.329Z,12.00
2023-04-24T04:45:44.299Z,12.20
2023-04-24T04:51:19.906Z,12.30
2023-04-24T04:56:25.754Z,12.40
2023-04-24T05:01:29.605Z,12.50
2023-04-24T05:06:33.198Z,12.50
2023-04-24T05:11:38.329Z,12.60
2023-04-24T05:16:42.600Z,12.70
2023-04-24T05:21:47.428Z,12.90
2023-04-24T05:26:53.030Z,13.00
2023-04-24T05:32:02.568Z,13.20
2023-04-24T05:37:10.801Z,13.50
2023-04-24T05:42:15.985Z,13.80
2023-04-24T05:47:19.689Z,14.10
2023-04-24T05:52:23.581Z,14.10
2023-04-24T05:57:29.281Z,14.10
2023-04-24T06:02:39.316Z,14.20
2023-04-24T06:07:44.462Z,14.50
2023-04-24T06:12:49.112Z,14.80
2023-04-24T06:17:54.457Z,14.90
2023-04-24T06:22:58.182Z,15.10
2023-04-24T06:28:03.608Z,15.00
2023-04-24T06:33:19.440Z,14.90
2023-04-24T06:38:24.785Z,14.90
2023-04-24T06:43:29.397Z,15.00
2023-04-24T06:48:33.197Z,14.90
2023-04-24T06:53:36.875Z,14.80
2023-04-24T06:58:42.014Z,14.80
2023-04-24T07:03:45.883Z,15.00
2023-04-24T07:08:50.077Z,15.20
2023-04-24T07:13:55.264Z,15.30
2023-04-24T07:18:58.837Z,15.30
2023-04-24T07:24:02.854Z,15.20
2023-04-24T07:29:08.023Z,15.50
2023-04-24T07:34:11.447Z,15.50
2023-04-24T07:39:14.754Z,15.90
2023-04-24T07:44:19.410Z,16.40
2023-04-24T07:49:23.550Z,16.90
2023-04-24T07:54:27.067Z,17.00
2023-04-24T07:59:32.105Z,16.90
2023-04-24T08:04:35.701Z,16.70
2023-04-24T08:09:39.184Z,17.00
2023-04-24T08:14:44.172Z,17.00
2023-04-24T08:19:49.278Z,17.10
2023-04-24T08:24:52.495Z,17.50
2023-04-24T08:29:57.069Z,17.80
2023-04-24T08:35:00.984Z,18.40
2023-04-24T08:40:09.594Z,18.70
2023-04-24T08:45:14.993Z,18.80
2023-04-24T08:50:19.324Z,18.10
2023-04-24T08:55:22.880Z,17.60
2023-04-24T09:00:28.062Z,17.60
2023-04-24T09:05:32.096Z,17.30
2023-04-24T09:10:37.570Z,17.60
2023-04-24T09:15:42.820Z,17.70
2023-04-24T09:21:02.808Z,17.90
2023-04-24T09:26:07.076Z,17.80
2023-04-24T09:31:15.070Z,17.50
2023-04-24T09:36:20.036Z,17.00
2023-04-24T09:41:23.347Z,16.70
2023-04-24T09:46:34.127Z,16.80
2023-04-24T09:51:38.604Z,16.80
2023-04-24T09:56:45.596Z,17.00
2023-04-24T10:01:51.833Z,17.30
2023-04-24T10:06:56.935Z,17.70
2023-04-24T10:12:01.113Z,18.10
2023-04-24T10:17:06.333Z,18.40
2023-04-24T10:22:10.033Z,18.70
2023-04-24T10:27:16.382Z,18.10
2023-04-24T10:32:21.089Z,18.10
2023-04-24T10:37:25.119Z,18.50
2023-04-24T10:42:29.929Z,19.00
2023-04-24T10:47:42.236Z,18.30
2023-04-24T10:52:49.489Z,17.60
2023-04-24T10:58:07.730Z,17.20
2023-04-24T11:03:27.229Z,17.10
2023-04-24T11:08:38.300Z,17.10
2023-04-24T11:14:07.235Z,17.00
2023-04-24T11:19:19.872Z,17.20
2023-04-24T11:24:34.210Z,17.30
2023-04-24T11:29:45.988Z,17.90
2023-04-24T11:34:52.441Z,17.90
2023-04-24T11:39:57.160Z,17.90
2023-04-24T11:45:01.410Z,18.00
2023-04-24T11:50:08.768Z,18.00
2023-04-24T11:55:27.023Z,18.10
2023-04-24T12:00:31.921Z,18.10
2023-04-24T12:05:36.800Z,18.50
2023-04-24T12:10:40.219Z,18.70
2023-04-24T12:15:43.638Z,19.20
2023-04-24T12:20:48.295Z,19.10
2023-04-24T12:25:54.298Z,18.20
2023-04-24T12:30:57.792Z,17.70
2023-04-24T12:36:02.735Z,17.60
2023-04-24T12:41:07.754Z,17.80
2023-04-24T12:46:11.032Z,18.20
2023-04-24T12:51:15.825Z,18.20
2023-04-24T12:56:19.103Z,17.90
2023-04-24T13:01:22.380Z,17.90
2023-04-24T13:06:27.455Z,17.90
2023-04-24T13:11:30.747Z,17.60
2023-04-24T13:16:34.153Z,17.60
2023-04-24T13:21:38.771Z,17.80
2023-04-24T13:26:41.981Z,18.30
2023-04-24T13:31:45.486Z,19.00
2023-04-24T13:36:53.546Z,19.60
2023-04-24T13:41:57.528Z,19.90
2023-04-24T13:47:01.476Z,19.90
2023-04-24T13:52:06.118Z,19.70
2023-04-24T13:57:09.394Z,19.30
2023-04-24T14:02:12.820Z,18.80
2023-04-24T14:07:17.546Z,18.20
2023-04-24T14:12:21.965Z,18.20
2023-04-24T14:17:26.078Z,18.20
2023-04-24T14:22:30.677Z,18.20
2023-04-24T14:27:35.568Z,18.10
2023-04-24T14:32:40.670Z,18.00
2023-04-24T14:37:45.795Z,17.90
2023-04-24T14:42:49.388Z,17.70
2023-04-24T14:47:53.334Z,17.20
2023-04-24T14:52:59.113Z,17.00
2023-04-24T14:58:02.908Z,16.40
2023-04-24T15:03:06.838Z,16.40
2023-04-24T15:08:11.886Z,16.20
2023-04-24T15:13:15.556Z,15.70
2023-04-24T15:18:18.919Z,15.80
2023-04-24T15:23:23.993Z,16.00
2023-04-24T15:28:27.768Z,15.50
2023-04-24T15:33:31.383Z,15.20
2023-04-24T15:38:36.375Z,15.30
2023-04-24T15:43:40.150Z,15.20
2023-04-24T15:48:44.764Z,15.40
2023-04-24T15:53:49.886Z,15.10
2023-04-24T15:58:53.341Z,15.00
2023-04-24T16:03:56.687Z,15.00
2023-04-24T16:09:03.534Z,14.90
2023-04-24T16:14:08.921Z,14.70
2023-04-24T16:19:13.342Z,14.80
2023-04-24T16:24:17.917Z,14.70
2023-04-24T16:29:21.701Z,15.00
2023-04-24T16:34:25.568Z,15.60
2023-04-24T16:39:30.470Z,15.20
2023-04-24T16:44:33.632Z,14.50
2023-04-24T16:49:37.175Z,14.10
2023-04-24T16:54:42.496Z,13.80
2023-04-24T16:59:46.041Z,13.50
2023-04-24T17:04:49.780Z,13.30
2023-04-24T17:09:54.713Z,13.00
2023-04-24T17:14:58.330Z,13.00
2023-04-24T17:20:11.527Z,12.90
2023-04-24T17:25:26.499Z,12.80
2023-04-24T17:30:30.225Z,12.70
2023-04-24T17:35:33.994Z,12.60
2023-04-24T17:40:39.481Z,12.50
2023-04-24T17:45:43.133Z,12.50
2023-04-24T17:50:47.380Z,12.40
2023-04-24T17:55:52.343Z,12.30
2023-04-24T18:00:55.917Z,12.20
2023-04-24T18:05:59.591Z,12.10
2023-04-24T18:11:04.905Z,12.10
2023-04-24T18:16:08.715Z,12.00
2023-04-24T18:21:12.463Z,11.90
2023-04-24T18:26:18.671Z,11.70
2023-04-24T18:31:22.460Z,11.50
2023-04-24T18:36:25.892Z,11.30
2023-04-24T18:41:30.714Z,11.00
2023-04-24T18:46:37.981Z,10.90
2023-04-24T18:51:53.179Z,10.70
2023-04-24T18:56:59.525Z,10.50
2023-04-24T19:02:02.919Z,10.40
2023-04-24T19:07:06.873Z,10.30
2023-04-24T19:12:12.276Z,10.40
2023-04-24T19:17:22.433Z,10.60
2023-04-24T19:22:26.105Z,10.70
2023-04-24T19:27:31.058Z,10.60
2023-04-24T19:32:34.648Z,10.40
2023-04-24T19:37:37.984Z,10.20
2023-04-24T19:42:44.624Z,10.10
2023-04-24T19:47:48.227Z,10.00
2023-04-24T19:52:51.488Z,9.80
2023-04-24T19:57:56.343Z,9.70
2023-04-24T20:02:59.783Z,9.60
2023-04-24T20:08:03.284Z,9.50
2023-04-24T20:13:07.874Z,9.50
2023-04-24T20:18:11.551Z,9.40
2023-04-24T20:23:15.370Z,9.30
2023-04-24T20:28:19.997Z,9.20
2023-04-24T20:33:23.767Z,9.20
2023-04-24T20:38:27.541Z,9.10
2023-04-24T20:43:32.395Z,9.10
2023-04-24T20:48:37.233Z,9.00
2023-04-24T20:53:41.248Z,9.00
2023-04-24T20:58:48.485Z,9.00
2023-04-24T21:03:53.835Z,9.00
2023-04-24T21:08:57.902Z,9.00
2023-04-24T21:14:03.011Z,8.90
2023-04-24T21:19:06.883Z,8.80
2023-04-24T21:24:10.603Z,8.70
2023-04-24T21:29:15.711Z,8.50
2023-04-24T21:34:18.957Z,8.60
2023-04-24T21:39:22.336Z,8.50
2023-04-24T21:44:27.283Z,8.70
2023-04-24T21:49:30.587Z,8.60
2023-04-24T21:54:33.816Z,8.60
2023-04-24T21:59:38.500Z,8.70
2023-04-24T22:04:42.121Z,8.80
2023-04-24T22:09:45.575Z,9.00
2023-04-24T22:14:50.249Z,9.20
2023-04-24T22:19:53.513Z,9.40
2023-04-24T22:24:57.150Z,9.50
2023-04-24T22:30:02.003Z,9.60
2023-04-24T22:35:06.063Z,9.70
2023-04-24T22:40:10.280Z,9.50
2023-04-24T22:45:15.711Z,9.30
2023-04-24T22:50:20.374Z,9.00
2023-04-24T22:55:23.918Z,8.90
2023-04-24T23:00:29.173Z,8.70
2023-04-24T23:05:32.754Z,8.60
2023-04-24T23:10:36.407Z,8.50
2023-04-24T23:15:42.042Z,8.30
2023-04-24T23:20:45.888Z,8.20
2023-04-24T23:25:49.534Z,8.00
2023-04-24T23:30:54.497Z,7.90
2023-04-24T23:35:58.436Z,7.80
2023-04-24T23:41:02.504Z,7.90
2023-04-24T23:46:07.409Z,7.90
2023-04-24T23:51:11.260Z,7.90
2023-04-24T23:56:14.814Z,8.20
